sensor_id;sensor_type;location;lat;lon;timestamp;pressure;altitude;pressure_sealevel;temperature;humidity
26697;BME280;14312;52.614;13.496;2022-11-15T00:00:49;100874.69;;;7.55;61.61
26697;BME280;14312;52.614;13.496;2022-11-15T00:03:38;100871.47;;;7.53;61.57
26697;BME280;14312;52.614;13.496;2022-11-15T00:06:24;100878.81;;;7.51;61.81
26697;BME280;14312;52.614;13.496;2022-11-15T00:09:10;100869.22;;;7.50;61.71
26697;BME280;14312;52.614;13.496;2022-11-15T00:11:56;100871.25;;;7.47;61.90
26697;BME280;14312;52.614;13.496;2022-11-15T00:14:43;100872.28;;;7.46;61.77
26697;BME280;14312;52.614;13.496;2022-11-15T00:17:29;100870.69;;;7.45;61.90
26697;BME280;14312;52.614;13.496;2022-11-15T00:20:17;100862.13;;;7.43;61.77
26697;BME280;14312;52.614;13.496;2022-11-15T00:23:03;100847.03;;;7.44;61.71
26697;BME280;14312;52.614;13.496;2022-11-15T00:25:56;100846.44;;;7.42;62.39
26697;BME280;14312;52.614;13.496;2022-11-15T00:28:43;100854.19;;;7.43;61.64
26697;BME280;14312;52.614;13.496;2022-11-15T00:31:29;100844.59;;;7.42;61.98
26697;BME280;14312;52.614;13.496;2022-11-15T00:34:14;100841.13;;;7.42;61.91
26697;BME280;14312;52.614;13.496;2022-11-15T00:37:00;100835.00;;;7.41;61.79
26697;BME280;14312;52.614;13.496;2022-11-15T00:39:46;100831.53;;;7.41;61.67
26697;BME280;14312;52.614;13.496;2022-11-15T00:42:32;100835.22;;;7.40;61.61
26697;BME280;14312;52.614;13.496;2022-11-15T00:45:17;100836.03;;;7.40;61.83
26697;BME280;14312;52.614;13.496;2022-11-15T00:48:04;100834.41;;;7.39;61.78
26697;BME280;14312;52.614;13.496;2022-11-15T00:50:50;100825.88;;;7.37;61.85
26697;BME280;14312;52.614;13.496;2022-11-15T00:53:36;100836.47;;;7.37;62.00
26697;BME280;14312;52.614;13.496;2022-11-15T00:56:21;100815.69;;;7.34;61.75
26697;BME280;14312;52.614;13.496;2022-11-15T00:59:07;100814.06;;;7.33;62.04
26697;BME280;14312;52.614;13.496;2022-11-15T01:01:53;100821.19;;;7.33;61.76
26697;BME280;14312;52.614;13.496;2022-11-15T01:04:41;100818.53;;;7.33;61.86
26697;BME280;14312;52.614;13.496;2022-11-15T01:07:27;100823.03;;;7.32;62.03
26697;BME280;14312;52.614;13.496;2022-11-15T01:10:12;100814.06;;;7.33;62.27
26697;BME280;14312;52.614;13.496;2022-11-15T01:12:58;100816.13;;;7.31;61.97
26697;BME280;14312;52.614;13.496;2022-11-15T01:15:44;100818.19;;;7.29;62.20
26697;BME280;14312;52.614;13.496;2022-11-15T01:18:30;100826.72;;;7.31;62.23
26697;BME280;14312;52.614;13.496;2022-11-15T01:21:17;100815.31;;;7.31;61.89
26697;BME280;14312;52.614;13.496;2022-11-15T01:24:04;100809.19;;;7.30;61.97
26697;BME280;14312;52.614;13.496;2022-11-15T01:26:50;100800.22;;;7.31;62.05
26697;BME280;14312;52.614;13.496;2022-11-15T01:29:36;100796.97;;;7.29;62.37
26697;BME280;14312;52.614;13.496;2022-11-15T01:32:22;100802.28;;;7.29;62.16
26697;BME280;14312;52.614;13.496;2022-11-15T01:35:07;100795.34;;;7.28;62.21
26697;BME280;14312;52.614;13.496;2022-11-15T01:37:53;100795.56;;;7.27;62.02
26697;BME280;14312;52.614;13.496;2022-11-15T01:40:39;100790.47;;;7.25;61.97
26697;BME280;14312;52.614;13.496;2022-11-15T01:43:29;100782.75;;;7.24;62.08
26697;BME280;14312;52.614;13.496;2022-11-15T01:46:36;100776.63;;;7.23;62.73
26697;BME280;14312;52.614;13.496;2022-11-15T01:49:27;100773.38;;;7.21;62.47
26697;BME280;14312;52.614;13.496;2022-11-15T01:52:19;100773.38;;;7.21;62.38
26697;BME280;14312;52.614;13.496;2022-11-15T01:57:59;100766.44;;;7.20;62.28
26697;BME280;14312;52.614;13.496;2022-11-15T02:00:51;100764.81;;;7.19;62.40
26697;BME280;14312;52.614;13.496;2022-11-15T02:03:42;100764.81;;;7.19;62.81
26697;BME280;14312;52.614;13.496;2022-11-15T02:06:30;100751.00;;;7.17;62.34
26697;BME280;14312;52.614;13.496;2022-11-15T02:09:17;100759.97;;;7.16;62.39
26697;BME280;14312;52.614;13.496;2022-11-15T02:12:03;100746.91;;;7.15;62.07
26697;BME280;14312;52.614;13.496;2022-11-15T02:14:52;100742.66;;;7.14;62.35
26697;BME280;14312;52.614;13.496;2022-11-15T02:18:10;100740.81;;;7.14;62.93
26697;BME280;14312;52.614;13.496;2022-11-15T02:24:02;100745.94;;;7.09;62.64
26697;BME280;14312;52.614;13.496;2022-11-15T02:33:59;100755.94;;;7.07;63.34
26697;BME280;14312;52.614;13.496;2022-11-15T02:36:36;100758.59;;;7.07;63.14
26697;BME280;14312;52.614;13.496;2022-11-15T02:39:39;100749.00;;;7.06;63.37
26697;BME280;14312;52.614;13.496;2022-11-15T02:42:32;100746.16;;;7.07;62.41
26697;BME280;14312;52.614;13.496;2022-11-15T02:45:45;100741.66;;;7.08;62.62
26697;BME280;14312;52.614;13.496;2022-11-15T02:48:33;100744.31;;;7.08;62.74
26697;BME280;14312;52.614;13.496;2022-11-15T02:51:20;100736.38;;;7.08;62.46
26697;BME280;14312;52.614;13.496;2022-11-15T02:54:11;100727.81;;;7.06;62.72
26697;BME280;14312;52.614;13.496;2022-11-15T02:57:02;100738.00;;;7.09;63.04
26697;BME280;14312;52.614;13.496;2022-11-15T03:03:36;100729.03;;;7.10;63.67
26697;BME280;14312;52.614;13.496;2022-11-15T03:06:52;100730.06;;;7.09;63.73
26697;BME280;14312;52.614;13.496;2022-11-15T03:10:02;100735.34;;;7.09;63.47
26697;BME280;14312;52.614;13.496;2022-11-15T03:13:12;100728.22;;;7.10;63.67
26697;BME280;14312;52.614;13.496;2022-11-15T03:16:07;100727.41;;;7.09;62.61
26697;BME280;14312;52.614;13.496;2022-11-15T03:19:00;100726.38;;;7.10;62.78
26697;BME280;14312;52.614;13.496;2022-11-15T03:21:51;100730.63;;;7.11;62.62
26697;BME280;14312;52.614;13.496;2022-11-15T03:24:38;100720.03;;;7.11;62.92
26697;BME280;14312;52.614;13.496;2022-11-15T03:27:39;100719.22;;;7.11;63.07
26697;BME280;14312;52.614;13.496;2022-11-15T03:30:28;100723.72;;;7.10;62.80
26697;BME280;14312;52.614;13.496;2022-11-15T03:33:16;100721.09;;;7.10;62.89
26697;BME280;14312;52.614;13.496;2022-11-15T03:36:03;100716.81;;;7.09;62.96
26697;BME280;14312;52.614;13.496;2022-11-15T03:38:49;100719.47;;;7.09;62.78
26697;BME280;14312;52.614;13.496;2022-11-15T03:41:48;100714.38;;;7.07;63.13
26697;BME280;14312;52.614;13.496;2022-11-15T03:50:16;100713.97;;;7.04;63.12
26697;BME280;14312;52.614;13.496;2022-11-15T03:53:03;100712.38;;;7.03;62.90
26697;BME280;14312;52.614;13.496;2022-11-15T03:55:49;100710.75;;;7.02;62.68
26697;BME280;14312;52.614;13.496;2022-11-15T03:58:36;100705.66;;;7.00;63.21
26697;BME280;14312;52.614;13.496;2022-11-15T04:01:21;100714.41;;;7.01;62.96
26697;BME280;14312;52.614;13.496;2022-11-15T04:04:07;100713.59;;;7.00;62.92
26697;BME280;14312;52.614;13.496;2022-11-15T04:06:53;100710.34;;;6.98;62.91
26697;BME280;14312;52.614;13.496;2022-11-15T04:09:41;100706.06;;;6.97;62.84
26697;BME280;14312;52.614;13.496;2022-11-15T04:12:50;100702.84;;;6.95;62.72
26697;BME280;14312;52.614;13.496;2022-11-15T04:15:36;100706.31;;;6.96;63.00
26697;BME280;14312;52.614;13.496;2022-11-15T04:18:21;100706.31;;;6.96;62.95
26697;BME280;14312;52.614;13.496;2022-11-15T04:21:08;100696.72;;;6.95;63.07
26697;BME280;14312;52.614;13.496;2022-11-15T04:24:12;100707.31;;;6.95;62.99
26697;BME280;14312;52.614;13.496;2022-11-15T04:26:59;100702.84;;;6.95;62.83
26697;BME280;14312;52.614;13.496;2022-11-15T04:29:45;100699.38;;;6.95;62.84
26697;BME280;14312;52.614;13.496;2022-11-15T04:32:30;100699.38;;;6.95;63.16
26697;BME280;14312;52.614;13.496;2022-11-15T04:35:16;100683.50;;;6.95;63.10
26697;BME280;14312;52.614;13.496;2022-11-15T04:38:04;100691.19;;;6.96;63.26
26697;BME280;14312;52.614;13.496;2022-11-15T04:40:50;100691.19;;;6.96;63.11
26697;BME280;14312;52.614;13.496;2022-11-15T04:43:36;100690.41;;;6.96;63.28
26697;BME280;14312;52.614;13.496;2022-11-15T04:46:23;100694.66;;;6.97;62.89
26697;BME280;14312;52.614;13.496;2022-11-15T04:49:12;100694.91;;;6.95;63.19
26697;BME280;14312;52.614;13.496;2022-11-15T04:51:58;100701.78;;;6.96;63.11
26697;BME280;14312;52.614;13.496;2022-11-15T04:54:44;100697.53;;;6.95;63.15
26697;BME280;14312;52.614;13.496;2022-11-15T04:57:30;100688.78;;;6.95;63.12
26697;BME280;14312;52.614;13.496;2022-11-15T05:00:17;100687.16;;;6.94;63.13
26697;BME280;14312;52.614;13.496;2022-11-15T05:03:03;100688.19;;;6.93;63.11
26697;BME280;14312;52.614;13.496;2022-11-15T05:06:08;100689.19;;;6.92;63.09
26697;BME280;14312;52.614;13.496;2022-11-15T05:08:54;100692.88;;;6.91;63.11
26697;BME280;14312;52.614;13.496;2022-11-15T05:11:42;100685.94;;;6.90;62.97
26697;BME280;14312;52.614;13.496;2022-11-15T05:14:28;100684.34;;;6.89;63.00
26697;BME280;14312;52.614;13.496;2022-11-15T05:17:14;100683.75;;;6.87;62.98
26697;BME280;14312;52.614;13.496;2022-11-15T05:20:01;100690.06;;;6.86;62.94
26697;BME280;14312;52.614;13.496;2022-11-15T05:22:47;100684.75;;;6.86;63.02
26697;BME280;14312;52.614;13.496;2022-11-15T05:25:33;100685.78;;;6.85;63.12
26697;BME280;14312;52.614;13.496;2022-11-15T05:28:19;100680.94;;;6.82;62.98
26697;BME280;14312;52.614;13.496;2022-11-15T05:31:13;100681.94;;;6.81;63.06
26697;BME280;14312;52.614;13.496;2022-11-15T05:34:00;100677.88;;;6.78;63.17
26697;BME280;14312;52.614;13.496;2022-11-15T05:36:52;100684.81;;;6.79;63.15
26697;BME280;14312;52.614;13.496;2022-11-15T05:39:38;100694.59;;;6.79;62.95
26697;BME280;14312;52.614;13.496;2022-11-15T05:42:26;100682.38;;;6.78;63.10
26697;BME280;14312;52.614;13.496;2022-11-15T05:45:14;100682.81;;;6.75;63.16
26697;BME280;14312;52.614;13.496;2022-11-15T05:48:06;100687.50;;;6.73;63.42
26697;BME280;14312;52.614;13.496;2022-11-15T05:50:55;100690.97;;;6.73;63.12
26697;BME280;14312;52.614;13.496;2022-11-15T05:53:42;100692.78;;;6.73;63.08
26697;BME280;14312;52.614;13.496;2022-11-15T05:56:29;100691.97;;;6.72;63.21
26697;BME280;14312;52.614;13.496;2022-11-15T05:59:16;100695.44;;;6.73;63.25
26697;BME280;14312;52.614;13.496;2022-11-15T06:02:03;100688.53;;;6.72;63.02
26697;BME280;14312;52.614;13.496;2022-11-15T06:04:48;100693.00;;;6.71;63.32
26697;BME280;14312;52.614;13.496;2022-11-15T06:07:34;100693.81;;;6.72;63.61
26697;BME280;14312;52.614;13.496;2022-11-15T06:10:20;100697.88;;;6.74;63.44
26697;BME280;14312;52.614;13.496;2022-11-15T06:13:06;100692.59;;;6.74;63.46
26697;BME280;14312;52.614;13.496;2022-11-15T06:15:55;100700.28;;;6.76;63.58
26697;BME280;14312;52.614;13.496;2022-11-15T06:18:42;100701.94;;;6.77;63.16
26697;BME280;14312;52.614;13.496;2022-11-15T06:21:29;100700.69;;;6.79;63.55
26697;BME280;14312;52.614;13.496;2022-11-15T06:24:14;100699.06;;;6.78;63.43
26697;BME280;14312;52.614;13.496;2022-11-15T06:27:00;100703.13;;;6.81;63.36
26697;BME280;14312;52.614;13.496;2022-11-15T06:29:50;100703.13;;;6.81;63.62
26697;BME280;14312;52.614;13.496;2022-11-15T06:32:36;100708.44;;;6.81;63.38
26697;BME280;14312;52.614;13.496;2022-11-15T06:35:21;100706.38;;;6.83;63.55
26697;BME280;14312;52.614;13.496;2022-11-15T06:38:09;100703.13;;;6.81;63.40
26697;BME280;14312;52.614;13.496;2022-11-15T06:41:04;100700.50;;;6.81;63.61
26697;BME280;14312;52.614;13.496;2022-11-15T06:43:51;100704.97;;;6.80;63.27
26697;BME280;14312;52.614;13.496;2022-11-15T06:46:37;100713.13;;;6.79;63.16
26697;BME280;14312;52.614;13.496;2022-11-15T06:49:23;100711.69;;;6.76;63.14
26697;BME280;14312;52.614;13.496;2022-11-15T06:52:09;100707.66;;;6.74;63.18
26697;BME280;14312;52.614;13.496;2022-11-15T06:54:55;100709.28;;;6.75;63.37
26697;BME280;14312;52.614;13.496;2022-11-15T06:57:51;100709.28;;;6.75;63.85
26697;BME280;14312;52.614;13.496;2022-11-15T07:00:38;100710.31;;;6.74;63.34
26697;BME280;14312;52.614;13.496;2022-11-15T07:03:24;100716.19;;;6.76;63.67
26697;BME280;14312;52.614;13.496;2022-11-15T07:06:12;100720.47;;;6.77;63.54
26697;BME280;14312;52.614;13.496;2022-11-15T07:08:58;100719.44;;;6.78;63.41
26697;BME280;14312;52.614;13.496;2022-11-15T07:11:44;100713.72;;;6.81;63.47
26697;BME280;14312;52.614;13.496;2022-11-15T07:14:30;100716.97;;;6.83;63.49
26697;BME280;14312;52.614;13.496;2022-11-15T07:17:16;100723.47;;;6.87;63.62
26697;BME280;14312;52.614;13.496;2022-11-15T07:20:05;100719.34;;;6.91;63.79
26697;BME280;14312;52.614;13.496;2022-11-15T07:22:50;100718.94;;;6.94;63.61
26697;BME280;14312;52.614;13.496;2022-11-15T07:25:36;100733.16;;;6.99;64.00
26697;BME280;14312;52.614;13.496;2022-11-15T07:28:22;100731.50;;;7.05;63.71
26697;BME280;14312;52.614;13.496;2022-11-15T07:31:08;100737.56;;;7.12;63.97
26697;BME280;14312;52.614;13.496;2022-11-15T07:33:54;100733.84;;;7.20;64.25
26697;BME280;14312;52.614;13.496;2022-11-15T07:36:40;100733.78;;;7.26;64.08
26697;BME280;14312;52.614;13.496;2022-11-15T07:39:26;100735.16;;;7.35;64.14
26697;BME280;14312;52.614;13.496;2022-11-15T07:42:14;100734.88;;;7.43;64.35
26697;BME280;14312;52.614;13.496;2022-11-15T07:45:23;100731.50;;;7.55;64.69
26697;BME280;14312;52.614;13.496;2022-11-15T07:48:09;100735.53;;;7.64;64.24
26697;BME280;14312;52.614;13.496;2022-11-15T07:50:55;100725.22;;;7.74;64.49
26697;BME280;14312;52.614;13.496;2022-11-15T07:53:42;100730.84;;;7.84;64.54
26697;BME280;14312;52.614;13.496;2022-11-15T07:56:28;100722.16;;;7.95;64.40
26697;BME280;14312;52.614;13.496;2022-11-15T07:59:13;100715.09;;;8.07;64.76
26697;BME280;14312;52.614;13.496;2022-11-15T08:02:01;100717.59;;;8.20;64.83
26697;BME280;14312;52.614;13.496;2022-11-15T08:04:47;100718.03;;;8.36;64.91
26697;BME280;14312;52.614;13.496;2022-11-15T08:07:35;100714.91;;;8.57;65.31
26697;BME280;14312;52.614;13.496;2022-11-15T08:10:21;100712.91;;;8.82;65.45
26697;BME280;14312;52.614;13.496;2022-11-15T08:13:10;100712.06;;;9.12;65.87
26697;BME280;14312;52.614;13.496;2022-11-15T08:16:00;100712.34;;;9.45;65.96
26697;BME280;14312;52.614;13.496;2022-11-15T08:18:46;100712.81;;;9.77;65.42
26697;BME280;14312;52.614;13.496;2022-11-15T08:21:32;100706.88;;;10.10;65.39
26697;BME280;14312;52.614;13.496;2022-11-15T08:24:18;100701.72;;;10.43;65.14
26697;BME280;14312;52.614;13.496;2022-11-15T08:27:03;100696.50;;;10.77;65.06
26697;BME280;14312;52.614;13.496;2022-11-15T08:29:49;100708.22;;;11.09;64.70
26697;BME280;14312;52.614;13.496;2022-11-15T08:32:36;100698.63;;;11.42;64.43
26697;BME280;14312;52.614;13.496;2022-11-15T08:35:23;100694.31;;;11.74;64.05
26697;BME280;14312;52.614;13.496;2022-11-15T08:38:10;100701.94;;;12.04;63.68
26697;BME280;14312;52.614;13.496;2022-11-15T08:41:01;100696.75;;;12.36;63.33
26697;BME280;14312;52.614;13.496;2022-11-15T08:43:51;100695.44;;;12.65;62.92
26697;BME280;14312;52.614;13.496;2022-11-15T08:46:37;100691.97;;;12.91;62.76
26697;BME280;14312;52.614;13.496;2022-11-15T08:49:22;100698.34;;;13.17;62.24
26697;BME280;14312;52.614;13.496;2022-11-15T08:52:08;100693.47;;;13.41;62.04
26697;BME280;14312;52.614;13.496;2022-11-15T08:54:54;100693.06;;;13.64;61.91
26697;BME280;14312;52.614;13.496;2022-11-15T08:57:40;100691.34;;;13.90;61.77
26697;BME280;14312;52.614;13.496;2022-11-15T09:00:26;100694.94;;;14.16;61.47
26697;BME280;14312;52.614;13.496;2022-11-15T09:03:12;100697.78;;;14.41;61.07
26697;BME280;14312;52.614;13.496;2022-11-15T09:05:59;100696.47;;;14.64;60.70
26697;BME280;14312;52.614;13.496;2022-11-15T09:08:46;100693.56;;;14.86;60.23
26697;BME280;14312;52.614;13.496;2022-11-15T09:11:32;100697.63;;;15.04;60.03
26697;BME280;14312;52.614;13.496;2022-11-15T09:14:17;100701.09;;;15.14;59.48
26697;BME280;14312;52.614;13.496;2022-11-15T09:17:07;100703.50;;;15.16;58.72
26697;BME280;14312;52.614;13.496;2022-11-15T09:19:56;100693.56;;;15.06;58.41
26697;BME280;14312;52.614;13.496;2022-11-15T09:22:42;100698.94;;;14.96;58.33
26697;BME280;14312;52.614;13.496;2022-11-15T09:25:28;100693.03;;;14.84;58.47
26697;BME280;14312;52.614;13.496;2022-11-15T09:28:14;100698.63;;;14.72;58.68
26697;BME280;14312;52.614;13.496;2022-11-15T09:31:01;100691.09;;;14.64;58.67
26697;BME280;14312;52.614;13.496;2022-11-15T09:33:48;100698.88;;;14.56;58.76
26697;BME280;14312;52.614;13.496;2022-11-15T09:36:34;100695.34;;;14.50;58.79
26697;BME280;14312;52.614;13.496;2022-11-15T09:39:20;100688.63;;;14.42;58.88
26697;BME280;14312;52.614;13.496;2022-11-15T09:48:42;100695.53;;;14.28;59.61
26697;BME280;14312;52.614;13.496;2022-11-15T09:51:33;100689.66;;;14.26;59.87
26697;BME280;14312;52.614;13.496;2022-11-15T09:54:41;100692.34;;;14.31;59.96
26697;BME280;14312;52.614;13.496;2022-11-15T10:00:22;100688.38;;;14.39;59.55
26697;BME280;14312;52.614;13.496;2022-11-15T10:03:20;100686.25;;;14.41;58.75
26697;BME280;14312;52.614;13.496;2022-11-15T10:06:21;100680.06;;;14.40;58.50
26697;BME280;14312;52.614;13.496;2022-11-15T10:09:15;100672.75;;;14.36;58.84
26697;BME280;14312;52.614;13.496;2022-11-15T10:12:01;100672.50;;;14.32;58.84
26697;BME280;14312;52.614;13.496;2022-11-15T10:14:49;100674.13;;;14.33;58.91
26697;BME280;14312;52.614;13.496;2022-11-15T10:17:49;100666.06;;;14.33;58.74
26697;BME280;14312;52.614;13.496;2022-11-15T10:20:57;100664.19;;;14.34;59.13
26697;BME280;14312;52.614;13.496;2022-11-15T10:23:44;100658.06;;;14.38;59.39
26697;BME280;14312;52.614;13.496;2022-11-15T10:26:29;100655.41;;;14.43;59.73
26697;BME280;14312;52.614;13.496;2022-11-15T10:29:20;100644.16;;;14.52;59.75
26697;BME280;14312;52.614;13.496;2022-11-15T10:32:06;100651.16;;;14.63;59.53
26697;BME280;14312;52.614;13.496;2022-11-15T10:34:52;100638.28;;;14.70;59.50
26697;BME280;14312;52.614;13.496;2022-11-15T10:37:37;100634.78;;;14.79;59.80
26697;BME280;14312;52.614;13.496;2022-11-15T10:40:28;100628.63;;;14.89;59.52
26697;BME280;14312;52.614;13.496;2022-11-15T10:43:17;100626.22;;;14.98;59.49
26697;BME280;14312;52.614;13.496;2022-11-15T10:46:20;100623.25;;;15.09;59.29
26697;BME280;14312;52.614;13.496;2022-11-15T10:49:23;100617.34;;;15.17;59.27
26697;BME280;14312;52.614;13.496;2022-11-15T10:52:18;100611.97;;;15.22;59.30
26697;BME280;14312;52.614;13.496;2022-11-15T10:55:27;100611.16;;;15.32;59.17
26697;BME280;14312;52.614;13.496;2022-11-15T10:58:40;100608.16;;;15.44;59.01
26697;BME280;14312;52.614;13.496;2022-11-15T11:01:28;100604.94;;;15.52;59.12
26697;BME280;14312;52.614;13.496;2022-11-15T11:04:15;100596.34;;;15.60;59.18
26697;BME280;14312;52.614;13.496;2022-11-15T11:07:01;100587.72;;;15.68;59.09
26697;BME280;14312;52.614;13.496;2022-11-15T11:09:57;100587.66;;;15.78;58.76
26697;BME280;14312;52.614;13.496;2022-11-15T11:12:43;100584.41;;;15.86;58.84
26697;BME280;14312;52.614;13.496;2022-11-15T11:15:29;100583.81;;;15.99;58.76
26697;BME280;14312;52.614;13.496;2022-11-15T11:18:25;100580.50;;;16.18;58.64
26697;BME280;14312;52.614;13.496;2022-11-15T11:21:17;100581.88;;;16.49;58.87
26697;BME280;14312;52.614;13.496;2022-11-15T11:34:15;100564.91;;;18.95;56.11
26697;BME280;14312;52.614;13.496;2022-11-15T11:49:25;100561.31;;;21.86;52.42
26697;BME280;14312;52.614;13.496;2022-11-15T11:55:43;100550.75;;;22.96;50.26
26697;BME280;14312;52.614;13.496;2022-11-15T11:58:40;100555.50;;;23.46;49.13
26697;BME280;14312;52.614;13.496;2022-11-15T12:01:42;100545.19;;;23.90;48.31
26697;BME280;14312;52.614;13.496;2022-11-15T12:04:37;100539.75;;;24.31;48.65
26697;BME280;14312;52.614;13.496;2022-11-15T12:07:29;100541.97;;;24.71;48.44
26697;BME280;14312;52.614;13.496;2022-11-15T12:10:22;100541.84;;;25.12;48.31
26697;BME280;14312;52.614;13.496;2022-11-15T12:13:15;100533.88;;;25.56;47.47
26697;BME280;14312;52.614;13.496;2022-11-15T12:19:05;100516.66;;;26.32;46.88
26697;BME280;14312;52.614;13.496;2022-11-15T12:22:03;100517.59;;;26.67;44.64
26697;BME280;14312;52.614;13.496;2022-11-15T12:25:17;100514.22;;;27.02;44.24
26697;BME280;14312;52.614;13.496;2022-11-15T12:28:32;100508.44;;;27.38;43.65
26697;BME280;14312;52.614;13.496;2022-11-15T12:31:43;100507.03;;;27.79;43.16
26697;BME280;14312;52.614;13.496;2022-11-15T12:34:43;100501.50;;;28.14;43.00
26697;BME280;14312;52.614;13.496;2022-11-15T12:40:27;100505.31;;;28.71;43.98
26697;BME280;14312;52.614;13.496;2022-11-15T12:46:02;100497.91;;;29.17;42.31
26697;BME280;14312;52.614;13.496;2022-11-15T12:48:53;100490.38;;;29.37;42.38
26697;BME280;14312;52.614;13.496;2022-11-15T13:03:19;100479.56;;;29.77;38.96
26697;BME280;14312;52.614;13.496;2022-11-15T13:06:44;100465.78;;;29.74;38.62
26697;BME280;14312;52.614;13.496;2022-11-15T13:17:57;100450.41;;;29.39;39.44
26697;BME280;14312;52.614;13.496;2022-11-15T13:20:44;100455.50;;;29.14;38.90
26697;BME280;14312;52.614;13.496;2022-11-15T13:23:30;100457.28;;;28.77;38.75
26697;BME280;14312;52.614;13.496;2022-11-15T13:26:16;100456.66;;;28.41;38.89
26697;BME280;14312;52.614;13.496;2022-11-15T13:29:15;100455.22;;;28.09;37.85
26697;BME280;14312;52.614;13.496;2022-11-15T13:32:02;100456.94;;;27.79;39.47
26697;BME280;14312;52.614;13.496;2022-11-15T13:34:49;100446.28;;;27.54;39.50
26697;BME280;14312;52.614;13.496;2022-11-15T13:37:38;100455.03;;;27.28;39.47
26697;BME280;14312;52.614;13.496;2022-11-15T13:40:33;100461.25;;;27.10;39.08
26697;BME280;14312;52.614;13.496;2022-11-15T13:46:18;100451.53;;;26.65;40.06
26697;BME280;14312;52.614;13.496;2022-11-15T13:49:09;100458.16;;;26.48;40.14
26697;BME280;14312;52.614;13.496;2022-11-15T13:51:59;100456.53;;;26.32;40.65
26697;BME280;14312;52.614;13.496;2022-11-15T13:54:52;100467.97;;;26.22;39.88
26697;BME280;14312;52.614;13.496;2022-11-15T13:57:48;100461.19;;;26.03;39.99
26697;BME280;14312;52.614;13.496;2022-11-15T14:00:44;100465.16;;;25.78;39.83
26697;BME280;14312;52.614;13.496;2022-11-15T14:03:33;100461.78;;;25.45;40.55
26697;BME280;14312;52.614;13.496;2022-11-15T14:06:22;100455.91;;;25.06;40.20
26697;BME280;14312;52.614;13.496;2022-11-15T14:11:56;100468.25;;;24.22;40.91
26697;BME280;14312;52.614;13.496;2022-11-15T14:14:46;100461.22;;;23.79;40.88
26697;BME280;14312;52.614;13.496;2022-11-15T14:17:35;100465.19;;;23.32;41.67
26697;BME280;14312;52.614;13.496;2022-11-15T14:20:39;100468.63;;;22.82;41.87
26697;BME280;14312;52.614;13.496;2022-11-15T14:23:27;100463.47;;;22.43;42.80
26697;BME280;14312;52.614;13.496;2022-11-15T14:26:31;100463.16;;;22.10;42.70
26697;BME280;14312;52.614;13.496;2022-11-15T14:29:25;100468.09;;;21.82;43.56
26697;BME280;14312;52.614;13.496;2022-11-15T14:32:14;100459.66;;;21.58;44.01
26697;BME280;14312;52.614;13.496;2022-11-15T14:35:02;100457.22;;;21.30;44.32
26697;BME280;14312;52.614;13.496;2022-11-15T14:37:49;100460.44;;;21.01;44.50
26697;BME280;14312;52.614;13.496;2022-11-15T14:40:35;100458.69;;;20.66;44.63
26697;BME280;14312;52.614;13.496;2022-11-15T14:43:21;100451.25;;;20.27;45.21
26697;BME280;14312;52.614;13.496;2022-11-15T14:46:07;100443.94;;;19.83;45.26
26697;BME280;14312;52.614;13.496;2022-11-15T14:48:53;100443.53;;;19.40;45.96
26697;BME280;14312;52.614;13.496;2022-11-15T14:51:39;100437.97;;;18.95;46.10
26697;BME280;14312;52.614;13.496;2022-11-15T14:54:25;100435.00;;;18.51;46.49
26697;BME280;14312;52.614;13.496;2022-11-15T14:57:10;100435.69;;;18.10;46.81
26697;BME280;14312;52.614;13.496;2022-11-15T14:59:56;100442.81;;;17.69;47.38
26697;BME280;14312;52.614;13.496;2022-11-15T15:02:44;100431.44;;;17.29;47.85
26697;BME280;14312;52.614;13.496;2022-11-15T15:05:36;100436.75;;;16.92;48.34
26697;BME280;14312;52.614;13.496;2022-11-15T15:08:22;100438.19;;;16.55;48.76
26697;BME280;14312;52.614;13.496;2022-11-15T15:11:15;100447.88;;;16.22;49.13
26697;BME280;14312;52.614;13.496;2022-11-15T15:14:01;100445.72;;;15.90;49.37
26697;BME280;14312;52.614;13.496;2022-11-15T15:16:48;100440.78;;;15.63;49.92
26697;BME280;14312;52.614;13.496;2022-11-15T15:19:34;100439.03;;;15.39;50.26
26697;BME280;14312;52.614;13.496;2022-11-15T15:22:20;100430.53;;;15.16;50.83
26697;BME280;14312;52.614;13.496;2022-11-15T15:25:27;100432.75;;;14.94;51.52
26697;BME280;14312;52.614;13.496;2022-11-15T15:28:14;100423.97;;;14.73;51.34
26697;BME280;14312;52.614;13.496;2022-11-15T15:31:01;100430.16;;;14.59;51.68
26697;BME280;14312;52.614;13.496;2022-11-15T15:33:47;100413.59;;;14.41;52.00
26697;BME280;14312;52.614;13.496;2022-11-15T15:36:33;100410.34;;;14.29;51.91
26697;BME280;14312;52.614;13.496;2022-11-15T15:39:19;100406.88;;;14.14;51.93
26697;BME280;14312;52.614;13.496;2022-11-15T15:42:05;100405.00;;;13.99;52.04
26697;BME280;14312;52.614;13.496;2022-11-15T15:44:51;100403.13;;;13.84;52.25
26697;BME280;14312;52.614;13.496;2022-11-15T15:47:37;100403.91;;;13.69;52.60
26697;BME280;14312;52.614;13.496;2022-11-15T15:53:13;100412.41;;;13.41;52.79
26697;BME280;14312;52.614;13.496;2022-11-15T15:55:59;100417.19;;;13.29;53.12
26697;BME280;14312;52.614;13.496;2022-11-15T15:58:44;100413.94;;;13.17;53.44
26697;BME280;14312;52.614;13.496;2022-11-15T16:01:30;100414.69;;;13.07;53.47
26697;BME280;14312;52.614;13.496;2022-11-15T16:04:16;100408.47;;;12.97;53.71
26697;BME280;14312;52.614;13.496;2022-11-15T16:07:02;100416.44;;;12.86;53.56
26697;BME280;14312;52.614;13.496;2022-11-15T16:09:50;100417.47;;;12.75;53.69
26697;BME280;14312;52.614;13.496;2022-11-15T16:12:48;100417.94;;;12.62;53.87
26697;BME280;14312;52.614;13.496;2022-11-15T16:15:34;100416.81;;;12.53;54.06